sensor_id;sensor_type;location;lat;lon;timestamp;P1;durP1;ratioP1;P2;durP2;ratioP2
74939;SDS011;63505;45.226;37.908;2022-11-25T00:01:03;19.40;;;10.23;;
74939;SDS011;63505;45.226;37.908;2022-11-25T00:03:34;18.00;;;9.57;;
74939;SDS011;63505;45.226;37.908;2022-11-25T00:06:13;19.35;;;10.18;;
74939;SDS011;63505;45.226;37.908;2022-11-25T00:08:41;21.60;;;9.57;;
74939;SDS011;63505;45.226;37.908;2022-11-25T00:11:09;17.15;;;8.77;;
74939;SDS011;63505;45.226;37.908;2022-11-25T00:13:35;16.48;;;8.70;;
74939;SDS011;63505;45.226;37.908;2022-11-25T00:16:02;19.52;;;8.63;;
74939;SDS011;63505;45.226;37.908;2022-11-25T00:18:30;20.77;;;9.07;;
74939;SDS011;63505;45.226;37.908;2022-11-25T00:20:56;21.50;;;10.32;;
74939;SDS011;63505;45.226;37.908;2022-11-25T00:23:22;18.85;;;9.75;;
74939;SDS011;63505;45.226;37.908;2022-11-25T00:25:49;19.00;;;8.18;;
74939;SDS011;63505;45.226;37.908;2022-11-25T00:28:15;17.27;;;8.85;;
74939;SDS011;63505;45.226;37.908;2022-11-25T00:30:44;19.85;;;8.38;;
74939;SDS011;63505;45.226;37.908;2022-11-25T00:33:10;9.73;;;5.63;;
74939;SDS011;63505;45.226;37.908;2022-11-25T00:35:35;22.50;;;8.52;;
74939;SDS011;63505;45.226;37.908;2022-11-25T00:38:02;13.35;;;6.28;;
74939;SDS011;63505;45.226;37.908;2022-11-25T00:40:30;14.52;;;7.30;;
74939;SDS011;63505;45.226;37.908;2022-11-25T00:42:56;17.08;;;6.45;;
74939;SDS011;63505;45.226;37.908;2022-11-25T00:45:40;12.43;;;6.20;;
74939;SDS011;63505;45.226;37.908;2022-11-25T00:48:07;18.85;;;8.25;;
74939;SDS011;63505;45.226;37.908;2022-11-25T00:50:32;17.27;;;7.85;;
74939;SDS011;63505;45.226;37.908;2022-11-25T00:52:58;20.13;;;8.68;;
74939;SDS011;63505;45.226;37.908;2022-11-25T00:55:24;17.30;;;8.88;;
74939;SDS011;63505;45.226;37.908;2022-11-25T00:58:10;19.52;;;8.98;;
74939;SDS011;63505;45.226;37.908;2022-11-25T01:00:37;17.63;;;8.45;;
74939;SDS011;63505;45.226;37.908;2022-11-25T01:03:03;20.35;;;8.93;;
74939;SDS011;63505;45.226;37.908;2022-11-25T01:05:31;15.40;;;8.68;;
74939;SDS011;63505;45.226;37.908;2022-11-25T01:07:57;16.90;;;9.40;;
74939;SDS011;63505;45.226;37.908;2022-11-25T01:10:23;13.20;;;8.27;;
74939;SDS011;63505;45.226;37.908;2022-11-25T01:12:49;18.25;;;9.02;;
74939;SDS011;63505;45.226;37.908;2022-11-25T01:15:15;17.55;;;8.38;;
74939;SDS011;63505;45.226;37.908;2022-11-25T01:17:41;19.05;;;9.65;;
74939;SDS011;63505;45.226;37.908;2022-11-25T01:20:06;16.02;;;9.20;;
74939;SDS011;63505;45.226;37.908;2022-11-25T01:22:33;19.65;;;7.38;;
74939;SDS011;63505;45.226;37.908;2022-11-25T01:25:01;15.63;;;7.63;;
74939;SDS011;63505;45.226;37.908;2022-11-25T01:27:27;18.40;;;8.18;;
74939;SDS011;63505;45.226;37.908;2022-11-25T01:29:53;17.60;;;8.38;;
74939;SDS011;63505;45.226;37.908;2022-11-25T01:32:19;17.08;;;9.65;;
74939;SDS011;63505;45.226;37.908;2022-11-25T01:34:45;18.95;;;9.18;;
74939;SDS011;63505;45.226;37.908;2022-11-25T01:37:11;10.50;;;5.95;;
74939;SDS011;63505;45.226;37.908;2022-11-25T01:39:37;25.63;;;11.38;;
74939;SDS011;63505;45.226;37.908;2022-11-25T01:42:04;20.08;;;11.07;;
74939;SDS011;63505;45.226;37.908;2022-11-25T01:44:31;21.20;;;11.85;;
74939;SDS011;63505;45.226;37.908;2022-11-25T01:49:54;20.30;;;10.55;;
74939;SDS011;63505;45.226;37.908;2022-11-25T01:52:35;21.92;;;10.90;;
74939;SDS011;63505;45.226;37.908;2022-11-25T01:55:15;5.95;;;3.45;;
74939;SDS011;63505;45.226;37.908;2022-11-25T02:00:37;18.05;;;8.40;;
74939;SDS011;63505;45.226;37.908;2022-11-25T02:03:04;19.95;;;9.55;;
74939;SDS011;63505;45.226;37.908;2022-11-25T02:07:57;18.40;;;8.68;;
74939;SDS011;63505;45.226;37.908;2022-11-25T02:10:24;16.83;;;9.07;;
74939;SDS011;63505;45.226;37.908;2022-11-25T02:12:53;14.32;;;7.45;;
74939;SDS011;63505;45.226;37.908;2022-11-25T02:15:19;8.05;;;4.22;;
74939;SDS011;63505;45.226;37.908;2022-11-25T02:17:45;15.73;;;7.55;;
74939;SDS011;63505;45.226;37.908;2022-11-25T02:20:13;22.60;;;9.70;;
74939;SDS011;63505;45.226;37.908;2022-11-25T02:22:54;9.45;;;5.15;;
74939;SDS011;63505;45.226;37.908;2022-11-25T02:25:27;19.63;;;9.05;;
74939;SDS011;63505;45.226;37.908;2022-11-25T02:28:03;17.38;;;8.77;;
74939;SDS011;63505;45.226;37.908;2022-11-25T02:30:30;16.05;;;7.28;;
74939;SDS011;63505;45.226;37.908;2022-11-25T02:32:58;15.27;;;8.57;;
74939;SDS011;63505;45.226;37.908;2022-11-25T02:35:28;17.70;;;9.23;;
74939;SDS011;63505;45.226;37.908;2022-11-25T02:38:00;19.15;;;9.77;;
74939;SDS011;63505;45.226;37.908;2022-11-25T02:40:39;14.30;;;7.78;;
74939;SDS011;63505;45.226;37.908;2022-11-25T02:43:33;15.82;;;9.48;;
74939;SDS011;63505;45.226;37.908;2022-11-25T02:46:00;18.15;;;10.32;;
74939;SDS011;63505;45.226;37.908;2022-11-25T02:48:32;21.50;;;9.48;;
74939;SDS011;63505;45.226;37.908;2022-11-25T02:50:59;20.80;;;10.38;;
74939;SDS011;63505;45.226;37.908;2022-11-25T02:53:26;21.58;;;10.65;;
74939;SDS011;63505;45.226;37.908;2022-11-25T02:55:52;20.75;;;10.85;;
74939;SDS011;63505;45.226;37.908;2022-11-25T02:58:18;18.40;;;10.40;;
74939;SDS011;63505;45.226;37.908;2022-11-25T03:00:44;19.75;;;9.02;;
74939;SDS011;63505;45.226;37.908;2022-11-25T03:05:39;19.38;;;8.77;;
74939;SDS011;63505;45.226;37.908;2022-11-25T03:08:05;14.02;;;8.32;;
74939;SDS011;63505;45.226;37.908;2022-11-25T03:10:35;18.63;;;9.73;;
74939;SDS011;63505;45.226;37.908;2022-11-25T03:13:02;18.20;;;7.82;;
74939;SDS011;63505;45.226;37.908;2022-11-25T03:15:29;10.20;;;5.00;;
74939;SDS011;63505;45.226;37.908;2022-11-25T03:17:55;21.63;;;8.48;;
74939;SDS011;63505;45.226;37.908;2022-11-25T03:20:21;16.23;;;6.47;;
74939;SDS011;63505;45.226;37.908;2022-11-25T03:22:48;13.60;;;6.38;;
74939;SDS011;63505;45.226;37.908;2022-11-25T03:25:14;22.38;;;10.27;;
74939;SDS011;63505;45.226;37.908;2022-11-25T03:27:42;7.50;;;3.55;;
74939;SDS011;63505;45.226;37.908;2022-11-25T03:30:10;16.17;;;5.93;;
74939;SDS011;63505;45.226;37.908;2022-11-25T03:32:39;16.80;;;7.97;;
74939;SDS011;63505;45.226;37.908;2022-11-25T03:35:06;7.25;;;4.65;;
74939;SDS011;63505;45.226;37.908;2022-11-25T03:37:33;14.35;;;6.50;;
74939;SDS011;63505;45.226;37.908;2022-11-25T03:39:59;19.58;;;8.02;;
74939;SDS011;63505;45.226;37.908;2022-11-25T03:42:25;13.45;;;6.40;;
74939;SDS011;63505;45.226;37.908;2022-11-25T03:44:53;16.73;;;10.10;;
74939;SDS011;63505;45.226;37.908;2022-11-25T03:47:19;20.50;;;10.50;;
74939;SDS011;63505;45.226;37.908;2022-11-25T03:49:45;18.02;;;10.27;;
74939;SDS011;63505;45.226;37.908;2022-11-25T03:52:11;21.95;;;9.23;;
74939;SDS011;63505;45.226;37.908;2022-11-25T03:54:37;17.08;;;8.20;;
74939;SDS011;63505;45.226;37.908;2022-11-25T03:57:14;12.68;;;6.65;;
74939;SDS011;63505;45.226;37.908;2022-11-25T03:59:40;6.00;;;2.85;;
74939;SDS011;63505;45.226;37.908;2022-11-25T04:02:07;8.75;;;4.38;;
74939;SDS011;63505;45.226;37.908;2022-11-25T04:04:33;8.00;;;4.45;;
74939;SDS011;63505;45.226;37.908;2022-11-25T04:06:59;8.30;;;5.03;;
74939;SDS011;63505;45.226;37.908;2022-11-25T04:09:25;12.88;;;5.25;;
74939;SDS011;63505;45.226;37.908;2022-11-25T04:11:53;11.15;;;3.60;;
74939;SDS011;63505;45.226;37.908;2022-11-25T04:14:48;9.20;;;5.20;;
74939;SDS011;63505;45.226;37.908;2022-11-25T04:17:15;10.32;;;3.78;;
74939;SDS011;63505;45.226;37.908;2022-11-25T04:19:41;6.85;;;4.53;;
74939;SDS011;63505;45.226;37.908;2022-11-25T04:22:07;5.53;;;3.55;;
74939;SDS011;63505;45.226;37.908;2022-11-25T04:24:36;12.10;;;5.35;;
74939;SDS011;63505;45.226;37.908;2022-11-25T04:27:03;12.93;;;5.72;;
74939;SDS011;63505;45.226;37.908;2022-11-25T04:29:29;11.48;;;5.82;;
74939;SDS011;63505;45.226;37.908;2022-11-25T04:31:58;6.90;;;3.90;;
74939;SDS011;63505;45.226;37.908;2022-11-25T04:34:24;8.40;;;4.57;;
74939;SDS011;63505;45.226;37.908;2022-11-25T04:36:51;7.28;;;3.55;;
74939;SDS011;63505;45.226;37.908;2022-11-25T04:39:18;11.65;;;6.05;;
74939;SDS011;63505;45.226;37.908;2022-11-25T04:41:44;14.00;;;7.63;;
74939;SDS011;63505;45.226;37.908;2022-11-25T04:44:12;14.80;;;8.98;;
74939;SDS011;63505;45.226;37.908;2022-11-25T04:46:40;17.50;;;8.50;;
74939;SDS011;63505;45.226;37.908;2022-11-25T04:49:08;18.05;;;8.75;;
74939;SDS011;63505;45.226;37.908;2022-11-25T04:51:36;27.15;;;11.80;;
74939;SDS011;63505;45.226;37.908;2022-11-25T04:54:05;19.67;;;9.80;;
74939;SDS011;63505;45.226;37.908;2022-11-25T04:56:33;16.50;;;9.20;;
74939;SDS011;63505;45.226;37.908;2022-11-25T04:58:59;20.10;;;9.95;;
74939;SDS011;63505;45.226;37.908;2022-11-25T05:01:45;21.00;;;9.82;;
74939;SDS011;63505;45.226;37.908;2022-11-25T05:04:27;20.40;;;9.77;;
74939;SDS011;63505;45.226;37.908;2022-11-25T05:06:53;31.27;;;10.73;;
74939;SDS011;63505;45.226;37.908;2022-11-25T05:09:20;18.50;;;9.23;;
74939;SDS011;63505;45.226;37.908;2022-11-25T05:11:56;27.90;;;10.13;;
74939;SDS011;63505;45.226;37.908;2022-11-25T05:14:22;19.65;;;10.70;;
74939;SDS011;63505;45.226;37.908;2022-11-25T05:16:49;25.08;;;11.48;;
74939;SDS011;63505;45.226;37.908;2022-11-25T05:19:16;20.35;;;10.30;;
74939;SDS011;63505;45.226;37.908;2022-11-25T05:21:43;23.63;;;10.00;;
74939;SDS011;63505;45.226;37.908;2022-11-25T05:24:09;19.65;;;10.90;;
74939;SDS011;63505;45.226;37.908;2022-11-25T05:26:36;17.92;;;9.18;;
74939;SDS011;63505;45.226;37.908;2022-11-25T05:29:03;24.58;;;11.50;;
74939;SDS011;63505;45.226;37.908;2022-11-25T05:31:31;21.30;;;12.80;;
74939;SDS011;63505;45.226;37.908;2022-11-25T05:34:01;26.65;;;12.00;;
74939;SDS011;63505;45.226;37.908;2022-11-25T05:36:28;29.35;;;12.15;;
74939;SDS011;63505;45.226;37.908;2022-11-25T05:38:55;21.67;;;12.50;;
74939;SDS011;63505;45.226;37.908;2022-11-25T05:41:32;22.55;;;12.68;;
74939;SDS011;63505;45.226;37.908;2022-11-25T05:43:58;21.52;;;11.90;;
74939;SDS011;63505;45.226;37.908;2022-11-25T05:46:24;29.27;;;14.57;;
74939;SDS011;63505;45.226;37.908;2022-11-25T05:48:54;26.17;;;12.13;;
74939;SDS011;63505;45.226;37.908;2022-11-25T05:51:20;25.73;;;13.20;;
74939;SDS011;63505;45.226;37.908;2022-11-25T05:53:48;27.55;;;15.32;;
74939;SDS011;63505;45.226;37.908;2022-11-25T05:56:16;25.52;;;15.30;;
74939;SDS011;63505;45.226;37.908;2022-11-25T05:59:05;30.27;;;13.60;;
74939;SDS011;63505;45.226;37.908;2022-11-25T06:01:56;27.92;;;14.02;;
74939;SDS011;63505;45.226;37.908;2022-11-25T06:04:23;30.30;;;15.25;;
74939;SDS011;63505;45.226;37.908;2022-11-25T06:06:49;28.38;;;15.65;;
74939;SDS011;63505;45.226;37.908;2022-11-25T06:09:15;28.70;;;14.73;;
74939;SDS011;63505;45.226;37.908;2022-11-25T06:11:41;32.20;;;15.07;;
74939;SDS011;63505;45.226;37.908;2022-11-25T06:14:07;30.52;;;15.77;;
74939;SDS011;63505;45.226;37.908;2022-11-25T06:16:34;26.20;;;13.45;;
74939;SDS011;63505;45.226;37.908;2022-11-25T06:19:20;26.52;;;13.30;;
74939;SDS011;63505;45.226;37.908;2022-11-25T06:21:46;88.15;;;45.33;;
74939;SDS011;63505;45.226;37.908;2022-11-25T06:24:13;54.90;;;26.75;;
74939;SDS011;63505;45.226;37.908;2022-11-25T06:26:42;28.70;;;14.80;;
74939;SDS011;63505;45.226;37.908;2022-11-25T06:29:09;28.38;;;16.38;;
74939;SDS011;63505;45.226;37.908;2022-11-25T06:31:35;25.20;;;12.50;;
74939;SDS011;63505;45.226;37.908;2022-11-25T06:34:22;25.27;;;13.35;;
74939;SDS011;63505;45.226;37.908;2022-11-25T06:36:49;26.45;;;12.95;;
74939;SDS011;63505;45.226;37.908;2022-11-25T06:39:14;22.38;;;11.65;;
74939;SDS011;63505;45.226;37.908;2022-11-25T06:41:40;22.55;;;12.05;;
74939;SDS011;63505;45.226;37.908;2022-11-25T06:44:06;28.13;;;12.73;;
74939;SDS011;63505;45.226;37.908;2022-11-25T06:46:32;27.45;;;12.00;;
74939;SDS011;63505;45.226;37.908;2022-11-25T06:48:58;26.10;;;11.77;;
74939;SDS011;63505;45.226;37.908;2022-11-25T06:51:25;24.38;;;12.05;;
74939;SDS011;63505;45.226;37.908;2022-11-25T06:53:51;23.10;;;12.23;;
74939;SDS011;63505;45.226;37.908;2022-11-25T06:56:21;22.92;;;10.80;;
74939;SDS011;63505;45.226;37.908;2022-11-25T06:58:50;24.08;;;11.20;;
74939;SDS011;63505;45.226;37.908;2022-11-25T07:01:26;22.27;;;10.82;;
74939;SDS011;63505;45.226;37.908;2022-11-25T07:03:54;21.20;;;11.00;;
74939;SDS011;63505;45.226;37.908;2022-11-25T07:06:23;17.98;;;9.68;;
74939;SDS011;63505;45.226;37.908;2022-11-25T07:08:49;25.00;;;11.23;;
74939;SDS011;63505;45.226;37.908;2022-11-25T07:13:43;20.25;;;9.80;;
74939;SDS011;63505;45.226;37.908;2022-11-25T07:16:10;22.27;;;9.15;;
74939;SDS011;63505;45.226;37.908;2022-11-25T07:18:38;24.17;;;9.95;;
74939;SDS011;63505;45.226;37.908;2022-11-25T07:21:06;23.00;;;10.25;;
74939;SDS011;63505;45.226;37.908;2022-11-25T07:23:34;22.80;;;9.88;;
74939;SDS011;63505;45.226;37.908;2022-11-25T07:26:11;22.15;;;10.60;;
74939;SDS011;63505;45.226;37.908;2022-11-25T07:28:39;24.33;;;10.80;;
74939;SDS011;63505;45.226;37.908;2022-11-25T07:31:11;28.00;;;12.55;;
74939;SDS011;63505;45.226;37.908;2022-11-25T07:33:40;18.90;;;10.25;;
74939;SDS011;63505;45.226;37.908;2022-11-25T07:36:07;15.68;;;8.07;;
74939;SDS011;63505;45.226;37.908;2022-11-25T07:38:35;18.23;;;7.65;;
74939;SDS011;63505;45.226;37.908;2022-11-25T07:41:05;12.48;;;6.68;;
74939;SDS011;63505;45.226;37.908;2022-11-25T07:43:31;17.63;;;7.75;;
74939;SDS011;63505;45.226;37.908;2022-11-25T07:46:08;21.63;;;10.43;;
74939;SDS011;63505;45.226;37.908;2022-11-25T07:48:45;18.77;;;8.52;;
74939;SDS011;63505;45.226;37.908;2022-11-25T07:51:24;18.77;;;8.40;;
74939;SDS011;63505;45.226;37.908;2022-11-25T07:53:53;19.60;;;9.90;;
74939;SDS011;63505;45.226;37.908;2022-11-25T07:56:20;21.17;;;9.77;;
74939;SDS011;63505;45.226;37.908;2022-11-25T07:58:46;21.25;;;10.02;;
74939;SDS011;63505;45.226;37.908;2022-11-25T08:01:13;12.75;;;7.82;;
74939;SDS011;63505;45.226;37.908;2022-11-25T08:03:41;19.77;;;9.90;;
74939;SDS011;63505;45.226;37.908;2022-11-25T08:06:08;22.52;;;10.73;;
74939;SDS011;63505;45.226;37.908;2022-11-25T08:08:40;25.33;;;11.95;;
74939;SDS011;63505;45.226;37.908;2022-11-25T08:11:08;22.50;;;10.82;;
74939;SDS011;63505;45.226;37.908;2022-11-25T08:13:35;20.67;;;9.73;;
74939;SDS011;63505;45.226;37.908;2022-11-25T08:16:01;14.15;;;8.00;;
74939;SDS011;63505;45.226;37.908;2022-11-25T08:18:27;8.35;;;4.43;;
74939;SDS011;63505;45.226;37.908;2022-11-25T08:21:04;9.95;;;5.38;;
74939;SDS011;63505;45.226;37.908;2022-11-25T08:23:31;19.60;;;9.80;;
74939;SDS011;63505;45.226;37.908;2022-11-25T08:26:12;22.88;;;9.77;;
74939;SDS011;63505;45.226;37.908;2022-11-25T08:28:41;17.08;;;9.02;;
74939;SDS011;63505;45.226;37.908;2022-11-25T08:31:08;19.15;;;9.30;;
74939;SDS011;63505;45.226;37.908;2022-11-25T08:33:35;12.45;;;5.85;;
74939;SDS011;63505;45.226;37.908;2022-11-25T08:36:02;14.20;;;9.07;;
74939;SDS011;63505;45.226;37.908;2022-11-25T08:38:28;18.33;;;9.10;;
74939;SDS011;63505;45.226;37.908;2022-11-25T08:40:55;15.25;;;7.82;;
74939;SDS011;63505;45.226;37.908;2022-11-25T08:43:21;11.05;;;6.10;;
74939;SDS011;63505;45.226;37.908;2022-11-25T08:45:48;16.48;;;7.95;;
74939;SDS011;63505;45.226;37.908;2022-11-25T08:48:14;8.65;;;5.60;;
74939;SDS011;63505;45.226;37.908;2022-11-25T08:50:46;15.65;;;5.60;;
74939;SDS011;63505;45.226;37.908;2022-11-25T08:53:15;17.52;;;6.13;;
74939;SDS011;63505;45.226;37.908;2022-11-25T08:55:41;11.68;;;6.97;;
74939;SDS011;63505;45.226;37.908;2022-11-25T08:58:07;13.88;;;7.47;;
74939;SDS011;63505;45.226;37.908;2022-11-25T09:00:36;11.48;;;6.43;;
74939;SDS011;63505;45.226;37.908;2022-11-25T09:03:02;12.85;;;6.35;;
74939;SDS011;63505;45.226;37.908;2022-11-25T09:05:28;7.15;;;4.20;;
74939;SDS011;63505;45.226;37.908;2022-11-25T09:08:03;10.02;;;4.88;;
74939;SDS011;63505;45.226;37.908;2022-11-25T09:10:31;17.30;;;6.63;;
74939;SDS011;63505;45.226;37.908;2022-11-25T09:12:58;14.38;;;5.65;;
74939;SDS011;63505;45.226;37.908;2022-11-25T09:15:24;7.68;;;4.88;;
74939;SDS011;63505;45.226;37.908;2022-11-25T09:18:04;12.45;;;6.45;;
74939;SDS011;63505;45.226;37.908;2022-11-25T09:20:31;15.05;;;7.43;;
74939;SDS011;63505;45.226;37.908;2022-11-25T09:22:58;9.02;;;5.07;;
74939;SDS011;63505;45.226;37.908;2022-11-25T09:25:25;10.38;;;5.15;;
74939;SDS011;63505;45.226;37.908;2022-11-25T09:27:51;12.30;;;6.50;;
74939;SDS011;63505;45.226;37.908;2022-11-25T09:30:18;9.27;;;4.85;;
74939;SDS011;63505;45.226;37.908;2022-11-25T09:32:46;8.15;;;4.60;;
74939;SDS011;63505;45.226;37.908;2022-11-25T09:35:14;10.05;;;5.07;;
74939;SDS011;63505;45.226;37.908;2022-11-25T09:37:41;12.70;;;5.78;;
74939;SDS011;63505;45.226;37.908;2022-11-25T09:40:07;10.10;;;5.75;;
74939;SDS011;63505;45.226;37.908;2022-11-25T09:45:50;11.43;;;5.85;;
74939;SDS011;63505;45.226;37.908;2022-11-25T09:54:41;8.00;;;4.80;;
74939;SDS011;63505;45.226;37.908;2022-11-25T10:00:15;21.58;;;8.68;;
74939;SDS011;63505;45.226;37.908;2022-11-25T10:05:22;10.15;;;5.53;;
74939;SDS011;63505;45.226;37.908;2022-11-25T10:07:52;15.35;;;7.25;;
74939;SDS011;63505;45.226;37.908;2022-11-25T10:10:26;14.48;;;7.90;;
74939;SDS011;63505;45.226;37.908;2022-11-25T10:13:05;11.93;;;7.15;;
74939;SDS011;63505;45.226;37.908;2022-11-25T10:15:53;14.07;;;6.30;;
74939;SDS011;63505;45.226;37.908;2022-11-25T10:20:54;13.50;;;8.25;;
74939;SDS011;63505;45.226;37.908;2022-11-25T10:23:23;12.35;;;5.20;;
74939;SDS011;63505;45.226;37.908;2022-11-25T10:25:58;13.85;;;6.60;;
74939;SDS011;63505;45.226;37.908;2022-11-25T10:28:31;12.60;;;7.50;;
74939;SDS011;63505;45.226;37.908;2022-11-25T10:31:03;14.13;;;7.80;;
74939;SDS011;63505;45.226;37.908;2022-11-25T10:33:51;13.68;;;6.47;;
74939;SDS011;63505;45.226;37.908;2022-11-25T10:36:31;11.68;;;5.68;;
74939;SDS011;63505;45.226;37.908;2022-11-25T10:41:57;7.60;;;5.00;;
74939;SDS011;63505;45.226;37.908;2022-11-25T10:44:50;14.55;;;7.03;;
74939;SDS011;63505;45.226;37.908;2022-11-25T10:52:43;11.70;;;6.47;;
74939;SDS011;63505;45.226;37.908;2022-11-25T10:55:13;17.55;;;8.15;;
74939;SDS011;63505;45.226;37.908;2022-11-25T10:57:41;14.35;;;8.30;;
74939;SDS011;63505;45.226;37.908;2022-11-25T11:00:34;7.00;;;4.22;;
74939;SDS011;63505;45.226;37.908;2022-11-25T11:05:50;8.85;;;4.65;;
74939;SDS011;63505;45.226;37.908;2022-11-25T11:08:22;11.65;;;5.65;;
74939;SDS011;63505;45.226;37.908;2022-11-25T11:13:38;16.13;;;6.60;;
74939;SDS011;63505;45.226;37.908;2022-11-25T11:19:01;12.60;;;7.15;;
74939;SDS011;63505;45.226;37.908;2022-11-25T11:21:31;15.90;;;7.47;;
74939;SDS011;63505;45.226;37.908;2022-11-25T11:23:59;16.83;;;8.55;;
74939;SDS011;63505;45.226;37.908;2022-11-25T11:26:27;10.10;;;5.03;;
74939;SDS011;63505;45.226;37.908;2022-11-25T11:29:01;14.48;;;8.23;;
74939;SDS011;63505;45.226;37.908;2022-11-25T11:31:53;16.00;;;7.65;;
74939;SDS011;63505;45.226;37.908;2022-11-25T11:52:53;9.02;;;4.53;;
74939;SDS011;63505;45.226;37.908;2022-11-25T11:55:44;14.65;;;4.82;;
74939;SDS011;63505;45.226;37.908;2022-11-25T12:03:57;9.32;;;4.90;;
74939;SDS011;63505;45.226;37.908;2022-11-25T12:06:28;9.00;;;3.90;;
74939;SDS011;63505;45.226;37.908;2022-11-25T12:09:02;7.30;;;4.45;;
74939;SDS011;63505;45.226;37.908;2022-11-25T12:11:34;8.13;;;4.30;;
74939;SDS011;63505;45.226;37.908;2022-11-25T12:14:06;9.00;;;4.07;;
74939;SDS011;63505;45.226;37.908;2022-11-25T12:16:55;12.75;;;6.05;;
74939;SDS011;63505;45.226;37.908;2022-11-25T12:30:20;11.90;;;6.25;;
74939;SDS011;63505;45.226;37.908;2022-11-25T12:41:00;9.88;;;5.25;;
74939;SDS011;63505;45.226;37.908;2022-11-25T12:46:46;14.15;;;6.13;;
74939;SDS011;63505;45.226;37.908;2022-11-25T12:49:16;14.73;;;6.82;;
74939;SDS011;63505;45.226;37.908;2022-11-25T13:00:08;13.27;;;7.20;;
74939;SDS011;63505;45.226;37.908;2022-11-25T13:11:14;13.77;;;8.68;;
74939;SDS011;63505;45.226;37.908;2022-11-25T13:13:58;14.63;;;8.45;;
74939;SDS011;63505;45.226;37.908;2022-11-25T13:16:45;17.38;;;7.55;;
74939;SDS011;63505;45.226;37.908;2022-11-25T13:19:17;13.90;;;7.63;;
74939;SDS011;63505;45.226;37.908;2022-11-25T13:27:04;10.57;;;6.72;;
74939;SDS011;63505;45.226;37.908;2022-11-25T13:34:27;11.77;;;6.57;;
74939;SDS011;63505;45.226;37.908;2022-11-25T13:36:56;12.23;;;5.72;;
74939;SDS011;63505;45.226;37.908;2022-11-25T13:42:22;11.00;;;6.45;;
74939;SDS011;63505;45.226;37.908;2022-11-25T13:44:51;11.10;;;5.63;;
74939;SDS011;63505;45.226;37.908;2022-11-25T13:50:03;18.90;;;8.27;;
74939;SDS011;63505;45.226;37.908;2022-11-25T13:55:23;15.63;;;7.47;;
74939;SDS011;63505;45.226;37.908;2022-11-25T14:10:50;12.88;;;6.43;;
74939;SDS011;63505;45.226;37.908;2022-11-25T14:19:20;17.55;;;9.77;;
74939;SDS011;63505;45.226;37.908;2022-11-25T14:25:42;17.30;;;9.65;;
74939;SDS011;63505;45.226;37.908;2022-11-25T14:28:19;22.13;;;9.60;;
74939;SDS011;63505;45.226;37.908;2022-11-25T14:30:52;25.08;;;12.52;;
74939;SDS011;63505;45.226;37.908;2022-11-25T14:33:25;25.00;;;11.60;;
74939;SDS011;63505;45.226;37.908;2022-11-25T14:35:58;26.92;;;11.73;;
74939;SDS011;63505;45.226;37.908;2022-11-25T14:38:37;25.38;;;12.55;;
74939;SDS011;63505;45.226;37.908;2022-11-25T14:43:48;22.77;;;10.70;;
74939;SDS011;63505;45.226;37.908;2022-11-25T14:46:20;34.05;;;17.50;;
74939;SDS011;63505;45.226;37.908;2022-11-25T14:48:54;28.95;;;12.90;;
74939;SDS011;63505;45.226;37.908;2022-11-25T14:51:23;18.98;;;8.73;;
74939;SDS011;63505;45.226;37.908;2022-11-25T14:53:50;19.70;;;9.65;;
74939;SDS011;63505;45.226;37.908;2022-11-25T14:56:21;14.73;;;6.65;;
74939;SDS011;63505;45.226;37.908;2022-11-25T14:58:52;17.77;;;8.35;;
74939;SDS011;63505;45.226;37.908;2022-11-25T15:01:21;17.23;;;10.10;;
74939;SDS011;63505;45.226;37.908;2022-11-25T15:03:50;17.05;;;8.57;;
74939;SDS011;63505;45.226;37.908;2022-11-25T15:06:47;13.70;;;8.20;;
74939;SDS011;63505;45.226;37.908;2022-11-25T15:09:27;16.33;;;9.30;;
74939;SDS011;63505;45.226;37.908;2022-11-25T15:12:06;18.10;;;8.30;;
74939;SDS011;63505;45.226;37.908;2022-11-25T15:14:39;19.95;;;8.73;;
74939;SDS011;63505;45.226;37.908;2022-11-25T15:17:08;15.95;;;9.00;;
74939;SDS011;63505;45.226;37.908;2022-11-25T15:19:44;19.38;;;9.80;;
74939;SDS011;63505;45.226;37.908;2022-11-25T15:22:12;16.90;;;9.48;;
74939;SDS011;63505;45.226;37.908;2022-11-25T15:24:43;18.42;;;9.05;;
74939;SDS011;63505;45.226;37.908;2022-11-25T15:27:23;17.83;;;9.65;;
74939;SDS011;63505;45.226;37.908;2022-11-25T15:29:53;19.75;;;10.23;;
74939;SDS011;63505;45.226;37.908;2022-11-25T15:32:24;20.40;;;9.55;;
74939;SDS011;63505;45.226;37.908;2022-11-25T15:34:53;23.52;;;9.43;;
74939;SDS011;63505;45.226;37.908;2022-11-25T15:37:21;18.80;;;9.40;;
74939;SDS011;63505;45.226;37.908;2022-11-25T15:39:49;22.70;;;9.90;;
74939;SDS011;63505;45.226;37.908;2022-11-25T15:42:18;17.38;;;10.18;;
74939;SDS011;63505;45.226;37.908;2022-11-25T15:44:53;26.73;;;11.07;;
74939;SDS011;63505;45.226;37.908;2022-11-25T15:47:26;27.75;;;14.23;;
74939;SDS011;63505;45.226;37.908;2022-11-25T15:55:01;35.40;;;15.23;;
74939;SDS011;63505;45.226;37.908;2022-11-25T15:57:31;30.35;;;13.05;;
74939;SDS011;63505;45.226;37.908;2022-11-25T16:05:35;43.28;;;22.33;;
74939;SDS011;63505;45.226;37.908;2022-11-25T16:08:19;30.80;;;14.45;;
74939;SDS011;63505;45.226;37.908;2022-11-25T16:10:59;28.35;;;15.38;;
74939;SDS011;63505;45.226;37.908;2022-11-25T16:13:44;31.23;;;14.95;;
74939;SDS011;63505;45.226;37.908;2022-11-25T16:26:52;31.05;;;15.88;;
74939;SDS011;63505;45.226;37.908;2022-11-25T16:29:28;32.65;;;15.90;;
74939;SDS011;63505;45.226;37.908;2022-11-25T16:32:12;28.05;;;14.77;;
74939;SDS011;63505;45.226;37.908;2022-11-25T16:34:41;27.20;;;13.77;;
74939;SDS011;63505;45.226;37.908;2022-11-25T16:37:11;26.90;;;12.82;;
74939;SDS011;63505;45.226;37.908;2022-11-25T16:39:37;26.33;;;13.60;;
74939;SDS011;63505;45.226;37.908;2022-11-25T16:42:03;27.60;;;13.95;;
74939;SDS011;63505;45.226;37.908;2022-11-25T16:44:32;26.50;;;12.85;;
74939;SDS011;63505;45.226;37.908;2022-11-25T16:47:00;25.00;;;12.82;;
74939;SDS011;63505;45.226;37.908;2022-11-25T16:49:28;26.30;;;12.85;;
74939;SDS011;63505;45.226;37.908;2022-11-25T16:51:56;32.28;;;16.83;;
74939;SDS011;63505;45.226;37.908;2022-11-25T16:54:22;29.00;;;12.95;;
74939;SDS011;63505;45.226;37.908;2022-11-25T16:56:52;29.23;;;10.75;;
74939;SDS011;63505;45.226;37.908;2022-11-25T16:59:28;31.02;;;13.40;;
74939;SDS011;63505;45.226;37.908;2022-11-25T17:01:56;32.65;;;12.63;;
74939;SDS011;63505;45.226;37.908;2022-11-25T17:04:24;35.60;;;14.32;;
74939;SDS011;63505;45.226;37.908;2022-11-25T17:06:50;27.50;;;13.00;;
74939;SDS011;63505;45.226;37.908;2022-11-25T17:09:16;27.48;;;13.02;;
74939;SDS011;63505;45.226;37.908;2022-11-25T17:11:44;27.10;;;12.43;;
74939;SDS011;63505;45.226;37.908;2022-11-25T17:14:32;32.80;;;12.95;;
74939;SDS011;63505;45.226;37.908;2022-11-25T17:17:01;28.08;;;15.80;;
74939;SDS011;63505;45.226;37.908;2022-11-25T17:19:30;32.60;;;14.63;;
74939;SDS011;63505;45.226;37.908;2022-11-25T17:22:02;27.10;;;11.05;;
74939;SDS011;63505;45.226;37.908;2022-11-25T17:24:30;29.02;;;14.45;;
74939;SDS011;63505;45.226;37.908;2022-11-25T17:26:59;22.67;;;11.25;;
74939;SDS011;63505;45.226;37.908;2022-11-25T17:29:40;30.05;;;13.02;;
74939;SDS011;63505;45.226;37.908;2022-11-25T17:32:13;24.38;;;11.25;;